sensor_id;sensor_type;location;lat;lon;timestamp;temperature;humidity
28175;SHT30;59417;44.788;10.334;2022-10-31T00:01:17;16.21;72.60
28175;SHT30;59417;44.788;10.334;2022-10-31T00:03:42;16.24;72.25
28175;SHT30;59417;44.788;10.334;2022-10-31T00:06:08;16.12;72.60
28175;SHT30;59417;44.788;10.334;2022-10-31T00:08:34;16.14;72.69
28175;SHT30;59417;44.788;10.334;2022-10-31T00:11:00;16.06;72.74
28175;SHT30;59417;44.788;10.334;2022-10-31T00:13:26;16.07;72.59
28175;SHT30;59417;44.788;10.334;2022-10-31T00:15:51;15.98;72.98
28175;SHT30;59417;44.788;10.334;2022-10-31T00:18:17;16.03;72.81
28175;SHT30;59417;44.788;10.334;2022-10-31T00:20:42;16.10;72.31
28175;SHT30;59417;44.788;10.334;2022-10-31T00:23:09;16.09;72.40
28175;SHT30;59417;44.788;10.334;2022-10-31T00:25:38;15.97;72.70
28175;SHT30;59417;44.788;10.334;2022-10-31T00:28:05;15.96;73.01
28175;SHT30;59417;44.788;10.334;2022-10-31T00:30:32;16.01;72.58
28175;SHT30;59417;44.788;10.334;2022-10-31T00:32:58;15.96;72.68
28175;SHT30;59417;44.788;10.334;2022-10-31T00:35:23;15.83;73.17
28175;SHT30;59417;44.788;10.334;2022-10-31T00:37:49;15.84;73.03
28175;SHT30;59417;44.788;10.334;2022-10-31T00:40:15;15.97;72.52
28175;SHT30;59417;44.788;10.334;2022-10-31T00:42:41;15.91;72.84
28175;SHT30;59417;44.788;10.334;2022-10-31T00:45:08;15.87;72.78
28175;SHT30;59417;44.788;10.334;2022-10-31T00:47:34;15.91;72.59
28175;SHT30;59417;44.788;10.334;2022-10-31T00:50:00;15.89;72.88
28175;SHT30;59417;44.788;10.334;2022-10-31T00:52:25;15.82;72.92
28175;SHT30;59417;44.788;10.334;2022-10-31T00:54:51;15.83;73.03
28175;SHT30;59417;44.788;10.334;2022-10-31T00:57:17;15.74;73.33
28175;SHT30;59417;44.788;10.334;2022-10-31T00:59:43;15.77;73.38
28175;SHT30;59417;44.788;10.334;2022-10-31T01:02:08;15.72;73.45
28175;SHT30;59417;44.788;10.334;2022-10-31T01:04:34;15.69;73.60
28175;SHT30;59417;44.788;10.334;2022-10-31T01:06:59;15.74;73.39
28175;SHT30;59417;44.788;10.334;2022-10-31T01:09:25;15.67;73.39
28175;SHT30;59417;44.788;10.334;2022-10-31T01:11:51;15.63;73.60
28175;SHT30;59417;44.788;10.334;2022-10-31T01:14:16;15.69;73.43
28175;SHT30;59417;44.788;10.334;2022-10-31T01:16:42;15.56;73.81
28175;SHT30;59417;44.788;10.334;2022-10-31T01:19:07;15.51;74.13
28175;SHT30;59417;44.788;10.334;2022-10-31T01:21:33;15.56;74.06
28175;SHT30;59417;44.788;10.334;2022-10-31T01:23:59;15.59;73.74
28175;SHT30;59417;44.788;10.334;2022-10-31T01:26:26;15.62;73.52
28175;SHT30;59417;44.788;10.334;2022-10-31T01:28:57;15.72;73.22
28175;SHT30;59417;44.788;10.334;2022-10-31T01:31:26;15.80;73.19
28175;SHT30;59417;44.788;10.334;2022-10-31T01:33:52;15.77;72.98
28175;SHT30;59417;44.788;10.334;2022-10-31T01:36:23;15.70;73.06
28175;SHT30;59417;44.788;10.334;2022-10-31T01:38:51;15.61;73.28
28175;SHT30;59417;44.788;10.334;2022-10-31T01:41:19;15.52;73.63
28175;SHT30;59417;44.788;10.334;2022-10-31T01:43:55;15.49;73.94
28175;SHT30;59417;44.788;10.334;2022-10-31T01:46:27;15.41;74.00
28175;SHT30;59417;44.788;10.334;2022-10-31T01:48:55;15.31;74.39
28175;SHT30;59417;44.788;10.334;2022-10-31T01:51:28;15.35;74.38
28175;SHT30;59417;44.788;10.334;2022-10-31T01:53:58;15.39;74.23
28175;SHT30;59417;44.788;10.334;2022-10-31T01:56:25;15.41;74.12
28175;SHT30;59417;44.788;10.334;2022-10-31T01:58:51;15.45;74.27
28175;SHT30;59417;44.788;10.334;2022-10-31T02:01:17;15.53;73.51
28175;SHT30;59417;44.788;10.334;2022-10-31T02:03:44;15.46;73.66
28175;SHT30;59417;44.788;10.334;2022-10-31T02:06:21;15.36;73.93
28175;SHT30;59417;44.788;10.334;2022-10-31T02:08:51;15.35;73.99
28175;SHT30;59417;44.788;10.334;2022-10-31T02:11:16;15.27;74.02
28175;SHT30;59417;44.788;10.334;2022-10-31T02:13:42;15.31;74.00
28175;SHT30;59417;44.788;10.334;2022-10-31T02:16:09;15.25;74.09
28175;SHT30;59417;44.788;10.334;2022-10-31T02:18:35;15.19;74.35
28175;SHT30;59417;44.788;10.334;2022-10-31T02:40:02;15.38;73.74
28175;SHT30;59417;44.788;10.334;2022-10-31T02:48:12;15.45;72.98
28175;SHT30;59417;44.788;10.334;2022-10-31T02:50:45;15.38;72.99
28175;SHT30;59417;44.788;10.334;2022-10-31T02:53:14;15.34;73.10
28175;SHT30;59417;44.788;10.334;2022-10-31T02:55:51;15.23;73.39
28175;SHT30;59417;44.788;10.334;2022-10-31T02:58:22;15.27;73.49
28175;SHT30;59417;44.788;10.334;2022-10-31T03:06:34;15.38;72.78
28175;SHT30;59417;44.788;10.334;2022-10-31T03:14:50;15.09;73.90
28175;SHT30;59417;44.788;10.334;2022-10-31T03:17:24;15.18;73.22
28175;SHT30;59417;44.788;10.334;2022-10-31T03:19:54;15.05;73.83
28175;SHT30;59417;44.788;10.334;2022-10-31T03:22:22;15.02;74.17
28175;SHT30;59417;44.788;10.334;2022-10-31T03:24:49;15.00;73.79
28175;SHT30;59417;44.788;10.334;2022-10-31T03:27:22;15.09;73.24
28175;SHT30;59417;44.788;10.334;2022-10-31T03:29:50;15.04;74.33
28175;SHT30;59417;44.788;10.334;2022-10-31T03:32:23;14.92;73.88
28175;SHT30;59417;44.788;10.334;2022-10-31T03:34:51;14.85;74.15
28175;SHT30;59417;44.788;10.334;2022-10-31T03:37:20;14.87;73.98
28175;SHT30;59417;44.788;10.334;2022-10-31T03:39:48;14.74;74.47
28175;SHT30;59417;44.788;10.334;2022-10-31T03:42:20;14.80;74.67
28175;SHT30;59417;44.788;10.334;2022-10-31T03:44:53;14.77;74.61
28175;SHT30;59417;44.788;10.334;2022-10-31T03:47:22;14.78;74.43
28175;SHT30;59417;44.788;10.334;2022-10-31T03:49:48;14.85;74.31
28175;SHT30;59417;44.788;10.334;2022-10-31T03:58:01;14.80;74.28
28175;SHT30;59417;44.788;10.334;2022-10-31T04:00:30;14.80;74.15
28175;SHT30;59417;44.788;10.334;2022-10-31T04:03:22;14.85;73.86
28175;SHT30;59417;44.788;10.334;2022-10-31T04:05:49;14.87;73.59
28175;SHT30;59417;44.788;10.334;2022-10-31T04:08:21;14.77;73.94
28175;SHT30;59417;44.788;10.334;2022-10-31T04:10:49;14.78;73.84
28175;SHT30;59417;44.788;10.334;2022-10-31T04:13:23;14.80;73.79
28175;SHT30;59417;44.788;10.334;2022-10-31T04:15:58;14.73;74.24
28175;SHT30;59417;44.788;10.334;2022-10-31T04:18:25;14.74;74.40
28175;SHT30;59417;44.788;10.334;2022-10-31T04:21:00;14.77;74.22
28175;SHT30;59417;44.788;10.334;2022-10-31T04:23:27;14.68;74.50
28175;SHT30;59417;44.788;10.334;2022-10-31T04:25:53;14.63;74.68
28175;SHT30;59417;44.788;10.334;2022-10-31T04:28:19;14.74;73.74
28175;SHT30;59417;44.788;10.334;2022-10-31T04:30:44;14.71;73.92
28175;SHT30;59417;44.788;10.334;2022-10-31T04:33:10;14.70;73.77
28175;SHT30;59417;44.788;10.334;2022-10-31T04:35:36;14.64;73.98
28175;SHT30;59417;44.788;10.334;2022-10-31T04:38:02;14.80;73.82
28175;SHT30;59417;44.788;10.334;2022-10-31T04:40:28;14.81;73.77
28175;SHT30;59417;44.788;10.334;2022-10-31T04:43:16;14.76;73.61
28175;SHT30;59417;44.788;10.334;2022-10-31T04:45:43;14.76;73.95
28175;SHT30;59417;44.788;10.334;2022-10-31T04:48:10;14.80;73.87
28175;SHT30;59417;44.788;10.334;2022-10-31T04:50:38;14.76;73.95
28175;SHT30;59417;44.788;10.334;2022-10-31T04:53:03;14.77;73.78
28175;SHT30;59417;44.788;10.334;2022-10-31T04:55:37;14.67;74.10
28175;SHT30;59417;44.788;10.334;2022-10-31T04:58:16;14.70;74.10
28175;SHT30;59417;44.788;10.334;2022-10-31T05:00:43;14.64;74.06
28175;SHT30;59417;44.788;10.334;2022-10-31T05:03:08;14.55;74.35
28175;SHT30;59417;44.788;10.334;2022-10-31T05:05:34;14.55;74.33
28175;SHT30;59417;44.788;10.334;2022-10-31T05:08:02;14.44;74.59
28175;SHT30;59417;44.788;10.334;2022-10-31T05:10:30;14.44;74.77
28175;SHT30;59417;44.788;10.334;2022-10-31T05:13:00;14.52;74.69
28175;SHT30;59417;44.788;10.334;2022-10-31T05:15:49;14.55;74.48
28175;SHT30;59417;44.788;10.334;2022-10-31T05:18:44;14.60;74.29
28175;SHT30;59417;44.788;10.334;2022-10-31T05:21:16;14.60;74.20
28175;SHT30;59417;44.788;10.334;2022-10-31T05:23:48;14.57;74.38
28175;SHT30;59417;44.788;10.334;2022-10-31T05:26:14;14.77;73.67
28175;SHT30;59417;44.788;10.334;2022-10-31T05:28:40;14.78;73.39
28175;SHT30;59417;44.788;10.334;2022-10-31T05:31:06;14.73;73.58
28175;SHT30;59417;44.788;10.334;2022-10-31T05:33:31;14.70;73.93
28175;SHT30;59417;44.788;10.334;2022-10-31T05:36:09;14.71;73.64
28175;SHT30;59417;44.788;10.334;2022-10-31T05:38:57;14.52;74.29
28175;SHT30;59417;44.788;10.334;2022-10-31T05:41:24;14.55;74.32
28175;SHT30;59417;44.788;10.334;2022-10-31T05:43:52;14.59;74.16
28175;SHT30;59417;44.788;10.334;2022-10-31T05:46:22;14.55;74.47
28175;SHT30;59417;44.788;10.334;2022-10-31T05:49:06;14.63;74.06
28175;SHT30;59417;44.788;10.334;2022-10-31T05:51:50;14.64;73.47
28175;SHT30;59417;44.788;10.334;2022-10-31T05:54:16;14.66;73.51
28175;SHT30;59417;44.788;10.334;2022-10-31T05:56:44;14.64;74.00
28175;SHT30;59417;44.788;10.334;2022-10-31T05:59:10;14.61;74.01
28175;SHT30;59417;44.788;10.334;2022-10-31T06:01:35;14.64;73.73
28175;SHT30;59417;44.788;10.334;2022-10-31T06:04:04;14.64;73.73
28175;SHT30;59417;44.788;10.334;2022-10-31T06:06:31;14.55;73.95
28175;SHT30;59417;44.788;10.334;2022-10-31T06:08:57;14.57;73.53
28175;SHT30;59417;44.788;10.334;2022-10-31T06:11:24;14.50;73.80
28175;SHT30;59417;44.788;10.334;2022-10-31T06:14:01;14.40;74.34
28175;SHT30;59417;44.788;10.334;2022-10-31T06:16:42;14.36;74.59
28175;SHT30;59417;44.788;10.334;2022-10-31T06:19:26;14.40;74.51
28175;SHT30;59417;44.788;10.334;2022-10-31T06:21:52;14.43;74.39
28175;SHT30;59417;44.788;10.334;2022-10-31T06:24:18;14.47;74.36
28175;SHT30;59417;44.788;10.334;2022-10-31T06:26:53;14.41;74.45
28175;SHT30;59417;44.788;10.334;2022-10-31T06:29:19;14.46;73.90
28175;SHT30;59417;44.788;10.334;2022-10-31T06:31:56;14.43;74.18
28175;SHT30;59417;44.788;10.334;2022-10-31T06:34:22;14.39;74.16
28175;SHT30;59417;44.788;10.334;2022-10-31T06:36:48;14.39;74.32
28175;SHT30;59417;44.788;10.334;2022-10-31T06:39:14;14.41;74.27
28175;SHT30;59417;44.788;10.334;2022-10-31T06:41:40;14.52;74.21
28175;SHT30;59417;44.788;10.334;2022-10-31T06:44:09;14.59;73.78
28175;SHT30;59417;44.788;10.334;2022-10-31T06:46:53;14.71;73.54
28175;SHT30;59417;44.788;10.334;2022-10-31T06:49:37;14.80;73.09
28175;SHT30;59417;44.788;10.334;2022-10-31T06:52:09;14.83;73.26
28175;SHT30;59417;44.788;10.334;2022-10-31T06:54:34;14.84;73.02
28175;SHT30;59417;44.788;10.334;2022-10-31T06:57:00;14.87;72.50
28175;SHT30;59417;44.788;10.334;2022-10-31T06:59:26;14.81;73.55
28175;SHT30;59417;44.788;10.334;2022-10-31T07:02:13;14.85;73.52
28175;SHT30;59417;44.788;10.334;2022-10-31T07:04:41;14.92;72.35
28175;SHT30;59417;44.788;10.334;2022-10-31T07:07:07;15.09;71.43
28175;SHT30;59417;44.788;10.334;2022-10-31T07:09:35;15.18;71.02
28175;SHT30;59417;44.788;10.334;2022-10-31T07:12:03;15.29;70.75
28175;SHT30;59417;44.788;10.334;2022-10-31T07:14:31;15.27;71.44
28175;SHT30;59417;44.788;10.334;2022-10-31T07:16:56;15.51;70.00
28175;SHT30;59417;44.788;10.334;2022-10-31T07:19:30;15.45;70.22
28175;SHT30;59417;44.788;10.334;2022-10-31T07:21:56;15.55;69.62
28175;SHT30;59417;44.788;10.334;2022-10-31T07:24:26;15.63;69.35
28175;SHT30;59417;44.788;10.334;2022-10-31T07:27:24;15.72;68.77
28175;SHT30;59417;44.788;10.334;2022-10-31T07:29:50;15.82;68.20
28175;SHT30;59417;44.788;10.334;2022-10-31T07:32:16;15.90;67.97
28175;SHT30;59417;44.788;10.334;2022-10-31T07:34:47;16.06;67.22
28175;SHT30;59417;44.788;10.334;2022-10-31T07:37:37;16.12;67.19
28175;SHT30;59417;44.788;10.334;2022-10-31T07:40:03;16.18;67.55
28175;SHT30;59417;44.788;10.334;2022-10-31T07:42:41;16.27;67.54
28175;SHT30;59417;44.788;10.334;2022-10-31T07:45:25;16.48;66.43
28175;SHT30;59417;44.788;10.334;2022-10-31T07:48:22;16.45;66.34
28175;SHT30;59417;44.788;10.334;2022-10-31T07:51:06;16.47;67.12
28175;SHT30;59417;44.788;10.334;2022-10-31T07:53:51;16.51;67.55
28175;SHT30;59417;44.788;10.334;2022-10-31T07:56:23;16.57;67.77
28175;SHT30;59417;44.788;10.334;2022-10-31T07:58:48;16.65;67.51
28175;SHT30;59417;44.788;10.334;2022-10-31T08:01:14;16.78;67.67
28175;SHT30;59417;44.788;10.334;2022-10-31T08:03:47;16.96;67.28
28175;SHT30;59417;44.788;10.334;2022-10-31T08:06:32;17.20;65.93
28175;SHT30;59417;44.788;10.334;2022-10-31T08:09:15;17.26;67.07
28175;SHT30;59417;44.788;10.334;2022-10-31T08:11:42;17.40;66.82
28175;SHT30;59417;44.788;10.334;2022-10-31T08:14:08;17.49;66.85
28175;SHT30;59417;44.788;10.334;2022-10-31T08:16:34;17.60;66.25
28175;SHT30;59417;44.788;10.334;2022-10-31T08:19:02;17.63;66.85
28175;SHT30;59417;44.788;10.334;2022-10-31T08:21:33;17.66;66.56
28175;SHT30;59417;44.788;10.334;2022-10-31T08:23:59;17.77;65.73
28175;SHT30;59417;44.788;10.334;2022-10-31T08:26:25;17.73;67.45
28175;SHT30;59417;44.788;10.334;2022-10-31T08:28:53;17.73;67.16
28175;SHT30;59417;44.788;10.334;2022-10-31T08:31:21;18.01;65.18
28175;SHT30;59417;44.788;10.334;2022-10-31T08:33:47;18.08;65.49
28175;SHT30;59417;44.788;10.334;2022-10-31T08:36:31;18.05;65.86
28175;SHT30;59417;44.788;10.334;2022-10-31T08:39:14;18.09;66.66
28175;SHT30;59417;44.788;10.334;2022-10-31T08:41:39;18.18;66.63
28175;SHT30;59417;44.788;10.334;2022-10-31T08:44:09;18.28;66.11
28175;SHT30;59417;44.788;10.334;2022-10-31T08:46:36;18.36;65.28
28175;SHT30;59417;44.788;10.334;2022-10-31T08:49:02;18.46;65.23
28175;SHT30;59417;44.788;10.334;2022-10-31T08:51:29;18.64;65.17
28175;SHT30;59417;44.788;10.334;2022-10-31T08:53:56;18.66;64.18
28175;SHT30;59417;44.788;10.334;2022-10-31T08:56:24;18.69;64.96
28175;SHT30;59417;44.788;10.334;2022-10-31T08:58:52;18.77;64.41
28175;SHT30;59417;44.788;10.334;2022-10-31T09:01:24;18.83;64.22
28175;SHT30;59417;44.788;10.334;2022-10-31T09:03:50;18.83;64.99
28175;SHT30;59417;44.788;10.334;2022-10-31T09:06:16;18.96;64.84
28175;SHT30;59417;44.788;10.334;2022-10-31T09:08:41;19.17;64.06
28175;SHT30;59417;44.788;10.334;2022-10-31T09:11:07;19.14;64.63
28175;SHT30;59417;44.788;10.334;2022-10-31T09:13:59;19.03;63.65
28175;SHT30;59417;44.788;10.334;2022-10-31T09:16:27;19.01;63.81
28175;SHT30;59417;44.788;10.334;2022-10-31T09:18:53;19.00;65.01
28175;SHT30;59417;44.788;10.334;2022-10-31T09:21:19;19.03;65.06
28175;SHT30;59417;44.788;10.334;2022-10-31T09:23:45;19.08;64.56
28175;SHT30;59417;44.788;10.334;2022-10-31T09:26:11;19.20;64.59
28175;SHT30;59417;44.788;10.334;2022-10-31T09:28:44;19.20;65.08
28175;SHT30;59417;44.788;10.334;2022-10-31T09:31:13;19.51;63.37
28175;SHT30;59417;44.788;10.334;2022-10-31T09:33:48;19.57;63.87
28175;SHT30;59417;44.788;10.334;2022-10-31T09:36:31;19.61;64.80
28175;SHT30;59417;44.788;10.334;2022-10-31T09:38:57;19.59;63.34
28175;SHT30;59417;44.788;10.334;2022-10-31T09:44:08;19.73;63.84
28175;SHT30;59417;44.788;10.334;2022-10-31T09:50:24;20.00;63.51
28175;SHT30;59417;44.788;10.334;2022-10-31T09:53:21;20.05;62.81
28175;SHT30;59417;44.788;10.334;2022-10-31T09:55:49;20.10;62.70
28175;SHT30;59417;44.788;10.334;2022-10-31T09:58:26;20.06;62.10
28175;SHT30;59417;44.788;10.334;2022-10-31T10:00:54;19.98;62.72
28175;SHT30;59417;44.788;10.334;2022-10-31T10:03:33;20.08;62.43
28175;SHT30;59417;44.788;10.334;2022-10-31T10:06:32;20.06;62.54
28175;SHT30;59417;44.788;10.334;2022-10-31T10:09:25;20.24;62.06
28175;SHT30;59417;44.788;10.334;2022-10-31T10:12:19;20.31;61.95
28175;SHT30;59417;44.788;10.334;2022-10-31T10:17:47;20.50;62.32
28175;SHT30;59417;44.788;10.334;2022-10-31T10:20:16;20.53;61.97
28175;SHT30;59417;44.788;10.334;2022-10-31T10:25:28;20.88;61.75
28175;SHT30;59417;44.788;10.334;2022-10-31T10:36:42;21.18;62.60
28175;SHT30;59417;44.788;10.334;2022-10-31T10:39:23;21.19;60.75
28175;SHT30;59417;44.788;10.334;2022-10-31T10:41:50;21.09;61.09
28175;SHT30;59417;44.788;10.334;2022-10-31T10:44:45;21.14;61.36
28175;SHT30;59417;44.788;10.334;2022-10-31T10:47:56;21.14;61.01
28175;SHT30;59417;44.788;10.334;2022-10-31T10:50:35;21.29;62.24
28175;SHT30;59417;44.788;10.334;2022-10-31T10:53:17;21.43;61.57
28175;SHT30;59417;44.788;10.334;2022-10-31T10:56:04;21.55;61.76
28175;SHT30;59417;44.788;10.334;2022-10-31T10:58:34;21.59;60.93
28175;SHT30;59417;44.788;10.334;2022-10-31T11:01:10;21.62;61.63
28175;SHT30;59417;44.788;10.334;2022-10-31T11:03:37;21.47;61.33
28175;SHT30;59417;44.788;10.334;2022-10-31T11:06:03;21.56;61.14
28175;SHT30;59417;44.788;10.334;2022-10-31T11:08:33;21.60;60.94
28175;SHT30;59417;44.788;10.334;2022-10-31T11:11:05;21.71;61.52
28175;SHT30;59417;44.788;10.334;2022-10-31T11:13:33;21.86;61.19
28175;SHT30;59417;44.788;10.334;2022-10-31T11:16:10;21.92;60.64
28175;SHT30;59417;44.788;10.334;2022-10-31T11:18:45;21.93;60.55
28175;SHT30;59417;44.788;10.334;2022-10-31T11:21:28;21.96;60.58
28175;SHT30;59417;44.788;10.334;2022-10-31T11:24:24;21.86;61.44
28175;SHT30;59417;44.788;10.334;2022-10-31T11:27:09;21.98;60.19
28175;SHT30;59417;44.788;10.334;2022-10-31T11:29:37;22.01;59.85
28175;SHT30;59417;44.788;10.334;2022-10-31T11:32:03;21.86;60.15
28175;SHT30;59417;44.788;10.334;2022-10-31T11:34:42;22.00;60.31
28175;SHT30;59417;44.788;10.334;2022-10-31T11:37:15;22.00;59.42
28175;SHT30;59417;44.788;10.334;2022-10-31T11:39:48;22.00;59.73
28175;SHT30;59417;44.788;10.334;2022-10-31T11:42:23;22.18;59.28
28175;SHT30;59417;44.788;10.334;2022-10-31T11:44:51;22.24;60.28
28175;SHT30;59417;44.788;10.334;2022-10-31T11:47:20;22.22;58.52
28175;SHT30;59417;44.788;10.334;2022-10-31T11:49:48;22.13;59.22
28175;SHT30;59417;44.788;10.334;2022-10-31T11:52:23;22.20;59.46
28175;SHT30;59417;44.788;10.334;2022-10-31T11:55:13;22.27;59.79
28175;SHT30;59417;44.788;10.334;2022-10-31T12:00:26;22.42;59.12
28175;SHT30;59417;44.788;10.334;2022-10-31T12:03:17;22.27;58.92
28175;SHT30;59417;44.788;10.334;2022-10-31T12:05:53;22.24;59.23
28175;SHT30;59417;44.788;10.334;2022-10-31T12:08:21;22.24;59.51
28175;SHT30;59417;44.788;10.334;2022-10-31T12:16:36;22.20;61.48
28175;SHT30;59417;44.788;10.334;2022-10-31T12:21:45;22.48;60.42
28175;SHT30;59417;44.788;10.334;2022-10-31T12:26:49;22.49;59.93
28175;SHT30;59417;44.788;10.334;2022-10-31T12:45:59;22.80;58.82
28175;SHT30;59417;44.788;10.334;2022-10-31T12:51:40;22.95;58.70
28175;SHT30;59417;44.788;10.334;2022-10-31T12:59:34;23.07;56.32
28175;SHT30;59417;44.788;10.334;2022-10-31T13:02:20;23.00;56.72
28175;SHT30;59417;44.788;10.334;2022-10-31T13:04:51;22.88;56.33
28175;SHT30;59417;44.788;10.334;2022-10-31T13:07:25;22.78;57.68
28175;SHT30;59417;44.788;10.334;2022-10-31T13:12:49;22.73;57.49
28175;SHT30;59417;44.788;10.334;2022-10-31T13:15:26;22.78;57.70
28175;SHT30;59417;44.788;10.334;2022-10-31T13:17:58;22.68;58.61
28175;SHT30;59417;44.788;10.334;2022-10-31T13:20:28;22.82;57.21
28175;SHT30;59417;44.788;10.334;2022-10-31T13:23:27;22.86;57.16
28175;SHT30;59417;44.788;10.334;2022-10-31T13:25:57;22.79;57.24
28175;SHT30;59417;44.788;10.334;2022-10-31T13:28:38;22.73;58.09
28175;SHT30;59417;44.788;10.334;2022-10-31T13:31:06;22.75;57.54
28175;SHT30;59417;44.788;10.334;2022-10-31T13:33:43;22.78;57.45
28175;SHT30;59417;44.788;10.334;2022-10-31T13:38:57;22.78;55.95
28175;SHT30;59417;44.788;10.334;2022-10-31T13:41:39;22.62;58.31
28175;SHT30;59417;44.788;10.334;2022-10-31T13:44:26;22.65;57.04
28175;SHT30;59417;44.788;10.334;2022-10-31T13:46:53;22.75;56.38
28175;SHT30;59417;44.788;10.334;2022-10-31T13:49:39;22.79;55.60
28175;SHT30;59417;44.788;10.334;2022-10-31T13:54:46;22.64;55.50
28175;SHT30;59417;44.788;10.334;2022-10-31T13:59:53;22.76;55.85
28175;SHT30;59417;44.788;10.334;2022-10-31T14:02:28;22.79;55.13
28175;SHT30;59417;44.788;10.334;2022-10-31T14:05:00;22.69;55.20
28175;SHT30;59417;44.788;10.334;2022-10-31T14:07:27;22.67;56.39
28175;SHT30;59417;44.788;10.334;2022-10-31T14:10:28;22.61;56.77
28175;SHT30;59417;44.788;10.334;2022-10-31T14:13:07;22.57;57.19
28175;SHT30;59417;44.788;10.334;2022-10-31T14:15:36;22.51;57.27
28175;SHT30;59417;44.788;10.334;2022-10-31T14:18:05;22.48;58.36
28175;SHT30;59417;44.788;10.334;2022-10-31T14:25:53;22.41;56.79
28175;SHT30;59417;44.788;10.334;2022-10-31T14:28:41;22.38;58.56
28175;SHT30;59417;44.788;10.334;2022-10-31T14:34:19;22.58;56.03
28175;SHT30;59417;44.788;10.334;2022-10-31T14:49:20;22.17;59.99
28175;SHT30;59417;44.788;10.334;2022-10-31T14:51:15;22.03;60.60
28175;SHT30;59417;44.788;10.334;2022-10-31T14:53:48;21.81;61.29
28175;SHT30;59417;44.788;10.334;2022-10-31T14:56:22;21.65;61.67
28175;SHT30;59417;44.788;10.334;2022-10-31T14:58:49;21.62;61.79
28175;SHT30;59417;44.788;10.334;2022-10-31T15:01:35;21.55;62.06
28175;SHT30;59417;44.788;10.334;2022-10-31T15:04:11;21.46;62.13
28175;SHT30;59417;44.788;10.334;2022-10-31T15:06:48;21.39;62.48
28175;SHT30;59417;44.788;10.334;2022-10-31T15:09:28;21.36;62.95
28175;SHT30;59417;44.788;10.334;2022-10-31T15:12:01;21.42;62.82
28175;SHT30;59417;44.788;10.334;2022-10-31T15:14:42;21.45;62.74
28175;SHT30;59417;44.788;10.334;2022-10-31T15:17:19;21.41;63.50
28175;SHT30;59417;44.788;10.334;2022-10-31T15:19:46;21.41;64.07
28175;SHT30;59417;44.788;10.334;2022-10-31T15:22:15;21.41;64.48
28175;SHT30;59417;44.788;10.334;2022-10-31T15:24:42;21.38;64.42
28175;SHT30;59417;44.788;10.334;2022-10-31T15:27:13;21.38;64.30
28175;SHT30;59417;44.788;10.334;2022-10-31T15:29:51;21.36;63.70
28175;SHT30;59417;44.788;10.334;2022-10-31T15:32:22;21.36;63.93
28175;SHT30;59417;44.788;10.334;2022-10-31T15:34:50;21.39;64.35
28175;SHT30;59417;44.788;10.334;2022-10-31T15:37:31;21.36;64.76
28175;SHT30;59417;44.788;10.334;2022-10-31T15:44:30;21.41;66.12
28175;SHT30;59417;44.788;10.334;2022-10-31T15:54:45;20.98;67.02
28175;SHT30;59417;44.788;10.334;2022-10-31T15:57:14;20.92;66.80
28175;SHT30;59417;44.788;10.334;2022-10-31T15:59:42;20.91;66.54
28175;SHT30;59417;44.788;10.334;2022-10-31T16:02:11;20.90;66.98
28175;SHT30;59417;44.788;10.334;2022-10-31T16:04:49;20.81;67.61
28175;SHT30;59417;44.788;10.334;2022-10-31T16:07:18;20.78;68.04
28175;SHT30;59417;44.788;10.334;2022-10-31T16:09:53;20.75;67.67
28175;SHT30;59417;44.788;10.334;2022-10-31T16:12:22;20.74;68.43
28175;SHT30;59417;44.788;10.334;2022-10-31T16:14:50;20.64;69.44
28175;SHT30;59417;44.788;10.334;2022-10-31T16:17:20;20.67;69.84
28175;SHT30;59417;44.788;10.334;2022-10-31T16:19:52;20.60;69.94
28175;SHT30;59417;44.788;10.334;2022-10-31T16:22:25;20.39;69.54
28175;SHT30;59417;44.788;10.334;2022-10-31T16:24:59;20.19;70.12
28175;SHT30;59417;44.788;10.334;2022-10-31T16:27:28;20.06;70.38
28175;SHT30;59417;44.788;10.334;2022-10-31T16:29:59;20.05;70.21
28175;SHT30;59417;44.788;10.334;2022-10-31T16:32:35;20.05;69.81
28175;SHT30;59417;44.788;10.334;2022-10-31T16:35:31;20.08;69.94
28175;SHT30;59417;44.788;10.334;2022-10-31T16:38:01;20.00;71.38
28175;SHT30;59417;44.788;10.334;2022-10-31T16:40:27;19.95;70.77
28175;SHT30;59417;44.788;10.334;2022-10-31T16:42:56;19.87;70.84
28175;SHT30;59417;44.788;10.334;2022-10-31T16:45:24;19.79;70.83
28175;SHT30;59417;44.788;10.334;2022-10-31T16:47:51;19.79;70.02
28175;SHT30;59417;44.788;10.334;2022-10-31T16:50:20;19.92;70.21
28175;SHT30;59417;44.788;10.334;2022-10-31T16:52:55;19.83;70.03
28175;SHT30;59417;44.788;10.334;2022-10-31T16:55:21;19.69;70.75
28175;SHT30;59417;44.788;10.334;2022-10-31T16:57:52;19.52;71.15
28175;SHT30;59417;44.788;10.334;2022-10-31T17:00:20;19.39;71.46
28175;SHT30;59417;44.788;10.334;2022-10-31T17:02:48;19.38;71.03
28175;SHT30;59417;44.788;10.334;2022-10-31T17:05:16;19.39;71.27
28175;SHT30;59417;44.788;10.334;2022-10-31T17:07:43;19.38;71.64
28175;SHT30;59417;44.788;10.334;2022-10-31T17:10:09;19.32;71.51
28175;SHT30;59417;44.788;10.334;2022-10-31T17:12:36;19.38;71.09
28175;SHT30;59417;44.788;10.334;2022-10-31T17:15:04;19.42;70.58
28175;SHT30;59417;44.788;10.334;2022-10-31T17:17:31;19.51;69.99
28175;SHT30;59417;44.788;10.334;2022-10-31T17:19:57;19.55;69.78
28175;SHT30;59417;44.788;10.334;2022-10-31T17:22:25;19.51;69.85
28175;SHT30;59417;44.788;10.334;2022-10-31T17:24:51;19.51;69.97
28175;SHT30;59417;44.788;10.334;2022-10-31T17:27:17;19.48;70.78
28175;SHT30;59417;44.788;10.334;2022-10-31T17:29:43;19.44;71.98
28175;SHT30;59417;44.788;10.334;2022-10-31T17:32:09;19.38;71.45
28175;SHT30;59417;44.788;10.334;2022-10-31T17:34:35;19.20;71.54
28175;SHT30;59417;44.788;10.334;2022-10-31T17:37:00;19.11;71.78
28175;SHT30;59417;44.788;10.334;2022-10-31T17:39:26;19.12;71.69
28175;SHT30;59417;44.788;10.334;2022-10-31T17:41:52;19.27;71.16
28175;SHT30;59417;44.788;10.334;2022-10-31T17:44:18;19.27;71.27
28175;SHT30;59417;44.788;10.334;2022-10-31T17:46:43;19.20;72.47
28175;SHT30;59417;44.788;10.334;2022-10-31T17:49:13;18.96;73.15
28175;SHT30;59417;44.788;10.334;2022-10-31T17:51:38;18.79;73.52
28175;SHT30;59417;44.788;10.334;2022-10-31T17:54:04;18.64;73.64
28175;SHT30;59417;44.788;10.334;2022-10-31T17:56:31;18.57;73.52
28175;SHT30;59417;44.788;10.334;2022-10-31T17:58:56;18.70;73.04
28175;SHT30;59417;44.788;10.334;2022-10-31T18:01:22;18.79;72.44
28175;SHT30;59417;44.788;10.334;2022-10-31T18:03:48;18.90;72.11
28175;SHT30;59417;44.788;10.334;2022-10-31T18:06:14;19.00;71.64